createdAt,value
2022-09-10T00:00:58.465Z,100316.94
2022-09-10T00:03:25.217Z,100318.59
2022-09-10T00:05:51.884Z,100315.81
2022-09-10T00:08:19.891Z,100317.31
2022-09-10T00:10:49.880Z,100316.38
2022-09-10T00:13:19.451Z,100306.34
2022-09-10T00:15:49.629Z,100305.63
2022-09-10T00:18:18.424Z,100315.16
2022-09-10T00:20:53.651Z,100306.34
2022-09-10T00:23:23.752Z,100306.03
2022-09-10T00:25:52.045Z,100307.56
2022-09-10T00:28:18.642Z,100305.03
2022-09-10T00:30:47.615Z,100309.75
2022-09-10T00:33:16.216Z,100302.38
2022-09-10T00:35:43.483Z,100292.50
2022-09-10T00:38:11.080Z,100303.19
2022-09-10T00:40:38.945Z,100300.84
2022-09-10T00:43:20.370Z,100298.75
2022-09-10T00:45:52.896Z,100302.84
2022-09-10T00:48:28.985Z,100296.81
2022-09-10T00:50:58.055Z,100289.31
2022-09-10T00:53:28.063Z,100290.78
2022-09-10T00:55:59.832Z,100285.94
2022-09-10T00:58:28.072Z,100284.25
2022-09-10T01:00:59.985Z,100281.00
2022-09-10T01:03:29.219Z,100277.13
2022-09-10T01:05:56.851Z,100277.81
2022-09-10T01:08:24.104Z,100281.44
2022-09-10T01:11:17.015Z,100280.84
2022-09-10T01:13:56.455Z,100272.53
2022-09-10T01:16:38.819Z,100269.38
2022-09-10T01:19:42.116Z,100261.53
2022-09-10T01:22:27.907Z,100261.53
2022-09-10T01:25:23.479Z,100257.19
2022-09-10T01:27:54.125Z,100263.94
2022-09-10T01:30:27.451Z,100250.91
2022-09-10T01:33:11.717Z,100254.19
2022-09-10T01:35:51.410Z,100252.25
2022-09-10T01:38:26.840Z,100257.44
2022-09-10T01:40:55.133Z,100268.88
2022-09-10T01:43:23.184Z,100262.75
2022-09-10T01:46:21.711Z,100264.63
2022-09-10T01:49:09.103Z,100259.16
2022-09-10T01:52:12.167Z,100252.69
2022-09-10T01:55:17.144Z,100252.22
2022-09-10T01:57:55.189Z,100241.69
2022-09-10T02:00:25.294Z,100251.63
2022-09-10T02:03:01.238Z,100242.09
2022-09-10T02:05:35.192Z,100246.63
2022-09-10T02:08:11.085Z,100246.06
2022-09-10T02:10:59.843Z,100237.72
2022-09-10T02:13:30.795Z,100246.25
2022-09-10T02:16:27.104Z,100248.97
2022-09-10T02:18:55.205Z,100245.47
2022-09-10T02:21:23.062Z,100251.22
2022-09-10T02:24:05.833Z,100247.00
2022-09-10T02:26:33.515Z,100248.19
2022-09-10T02:29:01.852Z,100247.34
2022-09-10T02:31:28.674Z,100253.25
2022-09-10T02:33:56.537Z,100247.75
2022-09-10T02:36:26.105Z,100242.34
2022-09-10T02:38:53.549Z,100259.47
2022-09-10T02:41:25.323Z,100249.34
2022-09-10T02:43:53.532Z,100257.78
2022-09-10T02:46:21.395Z,100244.38
2022-09-10T02:48:47.982Z,100243.88
2022-09-10T02:51:14.606Z,100244.09
2022-09-10T02:53:41.312Z,100246.38
2022-09-10T02:56:08.559Z,100244.41
2022-09-10T02:58:36.550Z,100240.94
2022-09-10T03:01:16.615Z,100236.09
2022-09-10T03:03:51.662Z,100248.56
2022-09-10T03:06:19.200Z,100241.31
2022-09-10T03:08:45.866Z,100235.84
2022-09-10T03:11:16.328Z,100243.19
2022-09-10T03:13:45.951Z,100241.66
2022-09-10T03:16:13.545Z,100248.22
2022-09-10T03:18:41.361Z,100242.31
2022-09-10T03:21:11.215Z,100237.91
2022-09-10T03:23:38.181Z,100233.75
2022-09-10T03:26:06.130Z,100245.22
2022-09-10T03:28:33.349Z,100241.53
2022-09-10T03:31:01.993Z,100236.81
2022-09-10T03:33:31.205Z,100239.69
2022-09-10T03:35:58.839Z,100242.31
2022-09-10T03:38:28.951Z,100228.16
2022-09-10T03:40:55.911Z,100231.88
2022-09-10T03:43:24.662Z,100232.59
2022-09-10T03:45:52.569Z,100227.66
2022-09-10T03:48:20.405Z,100223.19
2022-09-10T03:50:47.699Z,100231.84
2022-09-10T03:53:15.561Z,100236.72
2022-09-10T03:55:46.886Z,100245.66
2022-09-10T03:58:14.148Z,100248.19
2022-09-10T04:00:41.280Z,100244.31
2022-09-10T04:03:07.853Z,100248.78
2022-09-10T04:05:35.113Z,100234.53
2022-09-10T04:08:02.604Z,100239.06
2022-09-10T04:10:29.360Z,100241.09
2022-09-10T04:12:56.106Z,100237.72
2022-09-10T04:15:24.553Z,100240.09
2022-09-10T04:17:52.865Z,100238.25
2022-09-10T04:20:23.480Z,100235.25
2022-09-10T04:22:53.601Z,100228.97
2022-09-10T04:25:20.355Z,100238.22
2022-09-10T04:27:47.167Z,100235.00
2022-09-10T04:30:14.472Z,100238.03
2022-09-10T04:32:41.122Z,100239.22
2022-09-10T04:35:09.708Z,100235.25
2022-09-10T04:37:37.011Z,100238.22
2022-09-10T04:40:04.417Z,100239.91
2022-09-10T04:42:35.200Z,100237.66
2022-09-10T04:45:01.778Z,100243.63
2022-09-10T04:47:31.038Z,100235.06
2022-09-10T04:49:58.128Z,100251.81
2022-09-10T04:52:24.832Z,100243.28
2022-09-10T04:54:52.498Z,100240.41
2022-09-10T04:57:19.402Z,100245.88
2022-09-10T04:59:46.911Z,100249.84
2022-09-10T05:02:14.531Z,100248.75
2022-09-10T05:04:41.105Z,100247.50
2022-09-10T05:07:07.625Z,100244.41
2022-09-10T05:09:34.108Z,100249.50
2022-09-10T05:12:04.322Z,100254.56
2022-09-10T05:14:31.016Z,100253.44
2022-09-10T05:16:57.553Z,100258.84
2022-09-10T05:19:24.146Z,100252.22
2022-09-10T05:21:57.272Z,100251.22
2022-09-10T05:24:24.125Z,100261.25
2022-09-10T05:26:51.723Z,100256.28
2022-09-10T05:29:19.018Z,100252.22
2022-09-10T05:31:45.919Z,100258.16
2022-09-10T05:34:13.174Z,100262.53
2022-09-10T05:36:41.550Z,100270.00
2022-09-10T05:39:08.258Z,100287.03
2022-09-10T05:41:37.677Z,100277.47
2022-09-10T05:44:05.063Z,100278.34
2022-09-10T05:46:32.939Z,100289.34
2022-09-10T05:49:07.403Z,100281.84
2022-09-10T05:51:34.261Z,100292.94
2022-09-10T05:54:03.149Z,100290.09
2022-09-10T05:56:31.680Z,100297.69
2022-09-10T05:58:59.047Z,100308.47
2022-09-10T06:01:25.857Z,100312.22
2022-09-10T06:03:53.180Z,100323.19
2022-09-10T06:06:19.706Z,100322.47
2022-09-10T06:08:54.694Z,100327.19
2022-09-10T06:11:30.080Z,100325.63
2022-09-10T06:13:57.776Z,100343.84
2022-09-10T06:16:25.644Z,100330.06
2022-09-10T06:18:54.199Z,100344.94
2022-09-10T06:21:26.189Z,100345.16
2022-09-10T06:23:54.999Z,100349.50
2022-09-10T06:26:23.147Z,100362.66
2022-09-10T06:28:55.201Z,100364.13
2022-09-10T06:31:22.040Z,100362.81
2022-09-10T06:33:49.985Z,100376.44
2022-09-10T06:36:22.124Z,100370.41
2022-09-10T06:38:50.154Z,100376.56
2022-09-10T06:41:17.129Z,100378.50
2022-09-10T06:43:50.699Z,100386.59
2022-09-10T06:49:25.852Z,100382.84
2022-09-10T06:51:53.321Z,100383.59
2022-09-10T06:54:20.028Z,100382.47
2022-09-10T06:56:50.262Z,100395.91
2022-09-10T06:59:18.501Z,100386.34
2022-09-10T07:01:49.385Z,100390.81
2022-09-10T07:04:17.173Z,100384.78
2022-09-10T07:06:45.910Z,100389.25
2022-09-10T07:09:15.440Z,100390.34
2022-09-10T07:12:11.317Z,100392.97
2022-09-10T07:14:40.941Z,100393.44
2022-09-10T07:17:09.979Z,100399.50
2022-09-10T07:19:38.356Z,100404.81
2022-09-10T07:22:11.992Z,100406.16
2022-09-10T07:24:39.377Z,100407.47
2022-09-10T07:27:10.895Z,100411.25
2022-09-10T07:29:39.577Z,100409.31
2022-09-10T07:32:13.518Z,100405.69
2022-09-10T07:34:40.675Z,100410.25
2022-09-10T07:37:07.475Z,100413.63
2022-09-10T07:39:34.427Z,100417.13
2022-09-10T07:42:02.321Z,100425.50
2022-09-10T07:44:32.017Z,100405.53
2022-09-10T07:47:03.275Z,100412.69
2022-09-10T07:49:31.495Z,100421.00
2022-09-10T07:52:00.117Z,100426.69
2022-09-10T07:54:31.722Z,100419.66
2022-09-10T07:56:59.448Z,100429.72
2022-09-10T07:59:26.838Z,100426.56
2022-09-10T08:02:01.042Z,100428.50
2022-09-10T08:04:36.446Z,100414.38
2022-09-10T08:07:04.866Z,100425.97
2022-09-10T08:09:31.388Z,100429.72
2022-09-10T08:11:59.678Z,100424.16
2022-09-10T08:14:26.271Z,100421.47
2022-09-10T08:16:55.665Z,100422.50
2022-09-10T08:19:22.665Z,100427.31
2022-09-10T08:21:51.603Z,100421.66
2022-09-10T08:24:25.690Z,100415.31
2022-09-10T08:26:52.850Z,100430.06
2022-09-10T08:29:19.481Z,100429.22
2022-09-10T08:31:46.268Z,100424.63
2022-09-10T08:34:24.281Z,100427.03
2022-09-10T08:36:59.500Z,100431.66
2022-09-10T08:39:27.408Z,100425.75
2022-09-10T08:42:09.221Z,100429.50
2022-09-10T08:44:49.938Z,100428.53
2022-09-10T08:47:37.247Z,100423.19
2022-09-10T08:50:20.149Z,100419.31
2022-09-10T08:52:53.340Z,100413.53
2022-09-10T08:55:30.452Z,100423.69
2022-09-10T08:58:23.665Z,100419.09
2022-09-10T09:00:56.266Z,100419.59
2022-09-10T09:03:43.662Z,100430.69
2022-09-10T09:06:22.984Z,100425.25
2022-09-10T09:08:52.082Z,100430.81
2022-09-10T09:11:54.978Z,100432.97
2022-09-10T09:14:40.522Z,100417.69
2022-09-10T09:17:09.859Z,100419.56
2022-09-10T09:19:58.284Z,100416.78
2022-09-10T09:23:04.948Z,100423.25
2022-09-10T09:25:47.297Z,100407.66
2022-09-10T09:28:32.051Z,100410.31
2022-09-10T09:31:06.373Z,100418.06
2022-09-10T09:33:36.495Z,100409.13
2022-09-10T09:36:04.893Z,100413.09
2022-09-10T09:38:48.704Z,100411.66
2022-09-10T09:41:42.375Z,100410.31
2022-09-10T09:44:29.506Z,100404.88
2022-09-10T09:46:56.540Z,100408.03
2022-09-10T09:49:25.399Z,100406.94
2022-09-10T09:51:54.026Z,100402.88
2022-09-10T09:55:13.070Z,100401.50
2022-09-10T09:57:19.420Z,100403.78
2022-09-10T09:59:48.337Z,100393.38
2022-09-10T10:02:21.485Z,100398.22
2022-09-10T10:05:07.450Z,100404.00
2022-09-10T10:07:34.713Z,100401.88
2022-09-10T10:10:04.932Z,100396.94
2022-09-10T10:12:32.791Z,100398.41
2022-09-10T10:15:00.858Z,100392.63
2022-09-10T10:17:27.345Z,100386.59
2022-09-10T10:20:16.741Z,100381.28
2022-09-10T10:22:48.617Z,100397.34
2022-09-10T10:25:41.138Z,100399.50
2022-09-10T10:28:21.051Z,100400.81
2022-09-10T10:30:52.575Z,100394.19
2022-09-10T10:33:26.838Z,100408.81
2022-09-10T10:36:13.984Z,100390.69
2022-09-10T10:38:47.769Z,100394.19
2022-09-10T10:41:33.198Z,100401.66
2022-09-10T10:44:35.876Z,100401.53
2022-09-10T10:47:23.798Z,100407.09
2022-09-10T10:50:08.928Z,100383.16
2022-09-10T10:52:57.434Z,100383.53
2022-09-10T10:55:24.140Z,100396.56
2022-09-10T10:57:56.699Z,100400.34
2022-09-10T11:00:24.602Z,100420.25
2022-09-10T11:02:52.733Z,100420.44
2022-09-10T11:05:25.824Z,100412.63
2022-09-10T11:07:54.452Z,100406.88
2022-09-10T11:10:21.026Z,100408.81
2022-09-10T11:13:01.046Z,100414.47
2022-09-10T11:15:52.255Z,100407.97
2022-09-10T11:18:43.589Z,100400.22
2022-09-10T11:21:49.318Z,100408.91
2022-09-10T11:24:24.990Z,100402.16
2022-09-10T11:27:13.178Z,100404.94
2022-09-10T11:30:19.073Z,100410.38
2022-09-10T11:32:48.600Z,100400.38
2022-09-10T11:35:37.509Z,100414.47
2022-09-10T11:38:20.508Z,100408.53
2022-09-10T11:41:18.284Z,100400.09
2022-09-10T11:44:12.543Z,100397.56
2022-09-10T11:46:44.649Z,100400.13
2022-09-10T11:49:18.193Z,100404.56
2022-09-10T11:51:46.081Z,100401.94
2022-09-10T11:54:18.033Z,100406.50
2022-09-10T11:57:22.308Z,100421.97
2022-09-10T11:59:54.765Z,100415.56
2022-09-10T12:02:49.507Z,100409.78
2022-09-10T12:05:43.631Z,100412.78
2022-09-10T12:08:26.365Z,100404.41
2022-09-10T12:11:37.492Z,100403.22
2022-09-10T12:14:16.618Z,100399.25
2022-09-10T12:16:54.435Z,100412.44
2022-09-10T12:19:32.467Z,100411.13
2022-09-10T12:22:04.814Z,100415.00
2022-09-10T12:24:39.329Z,100419.31
2022-09-10T12:27:07.226Z,100422.19
2022-09-10T12:29:40.489Z,100413.75
2022-09-10T12:32:19.047Z,100423.19
2022-09-10T12:34:51.071Z,100432.47
2022-09-10T12:37:23.868Z,100426.44
2022-09-10T12:40:25.716Z,100433.31
2022-09-10T12:42:58.773Z,100431.63
2022-09-10T12:46:03.436Z,100434.31
2022-09-10T12:48:32.536Z,100436.31
2022-09-10T12:51:00.512Z,100431.50
2022-09-10T12:53:49.110Z,100440.44
2022-09-10T12:56:18.402Z,100446.38
2022-09-10T12:59:03.540Z,100438.44
2022-09-10T13:01:44.049Z,100429.25
2022-09-10T13:04:28.412Z,100420.69
2022-09-10T13:07:02.368Z,100422.31
2022-09-10T13:09:36.850Z,100421.34
2022-09-10T13:12:16.128Z,100425.59
2022-09-10T13:14:48.139Z,100431.78
2022-09-10T13:17:36.798Z,100421.59
2022-09-10T13:20:35.625Z,100430.81
2022-09-10T13:23:08.237Z,100432.34
2022-09-10T13:25:43.543Z,100434.31
2022-09-10T13:28:29.020Z,100428.50
2022-09-10T13:31:11.273Z,100428.03
2022-09-10T13:33:43.975Z,100429.38
2022-09-10T13:36:16.867Z,100416.53
2022-09-10T13:39:14.428Z,100425.38
2022-09-10T13:42:08.761Z,100427.44
2022-09-10T13:45:06.165Z,100421.88
2022-09-10T13:47:40.768Z,100427.19
2022-09-10T13:50:15.533Z,100432.25
2022-09-10T13:52:45.876Z,100428.13
2022-09-10T13:55:19.562Z,100415.19
2022-09-10T13:57:49.715Z,100419.06
2022-09-10T14:00:26.209Z,100425.13
2022-09-10T14:03:01.029Z,100412.50
2022-09-10T14:05:33.921Z,100406.94
2022-09-10T14:08:06.346Z,100396.81
2022-09-10T14:10:48.531Z,100405.38
2022-09-10T14:13:22.385Z,100406.94
2022-09-10T14:15:52.084Z,100397.16
2022-09-10T14:18:20.200Z,100408.03
2022-09-10T14:20:47.105Z,100409.22
2022-09-10T14:23:15.872Z,100409.22
2022-09-10T14:25:44.898Z,100400.03
2022-09-10T14:28:25.525Z,100404.97
2022-09-10T14:31:13.666Z,100405.81
2022-09-10T14:33:40.393Z,100406.56
2022-09-10T14:36:28.655Z,100402.94
2022-09-10T14:39:16.766Z,100394.47
2022-09-10T14:41:44.509Z,100401.22
2022-09-10T14:44:23.155Z,100410.75
2022-09-10T14:46:59.198Z,100408.56
2022-09-10T14:49:29.009Z,100404.00
2022-09-10T14:51:58.302Z,100420.19
2022-09-10T14:54:26.144Z,100416.09
2022-09-10T14:56:54.085Z,100418.41
2022-09-10T14:59:30.963Z,100428.59
2022-09-10T15:02:00.056Z,100425.81
2022-09-10T15:04:29.879Z,100424.28
2022-09-10T15:06:58.952Z,100427.28
2022-09-10T15:09:27.271Z,100432.97
2022-09-10T15:11:55.807Z,100436.44
2022-09-10T15:14:23.041Z,100437.44
2022-09-10T15:16:52.053Z,100437.91
2022-09-10T15:19:20.062Z,100441.53
2022-09-10T15:21:47.218Z,100445.16
2022-09-10T15:24:20.347Z,100449.75
2022-09-10T15:26:47.665Z,100446.78
2022-09-10T15:29:14.861Z,100456.06
2022-09-10T15:31:42.241Z,100454.38
2022-09-10T15:34:10.862Z,100460.19
2022-09-10T15:36:38.948Z,100463.06
2022-09-10T15:39:07.067Z,100462.84
2022-09-10T15:41:34.382Z,100466.94
2022-09-10T15:44:02.746Z,100473.22
2022-09-10T15:46:29.440Z,100476.13
2022-09-10T15:48:59.375Z,100469.00
2022-09-10T15:51:26.809Z,100477.09
2022-09-10T15:53:54.267Z,100469.81
2022-09-10T15:56:22.156Z,100473.00
2022-09-10T15:58:55.158Z,100460.53
2022-09-10T16:01:22.889Z,100464.16
2022-09-10T16:03:57.899Z,100463.69
2022-09-10T16:06:30.487Z,100458.84
2022-09-10T16:09:02.901Z,100468.41
2022-09-10T16:11:32.189Z,100469.47
2022-09-10T16:14:04.354Z,100472.13
2022-09-10T16:16:32.130Z,100471.16
2022-09-10T16:18:58.709Z,100482.88
2022-09-10T16:21:28.586Z,100489.88
2022-09-10T16:23:57.441Z,100491.94
2022-09-10T16:26:27.109Z,100489.03
2022-09-10T16:28:56.258Z,100494.56
2022-09-10T16:31:25.158Z,100503.03
2022-09-10T16:33:55.073Z,100499.88
2022-09-10T16:36:23.346Z,100507.72
2022-09-10T16:38:55.503Z,100512.22
2022-09-10T16:41:23.628Z,100519.47
2022-09-10T16:43:50.423Z,100512.84
2022-09-10T16:46:17.733Z,100520.34
2022-09-10T16:48:45.025Z,100522.25
2022-09-10T16:51:17.902Z,100532.31
2022-09-10T16:53:46.811Z,100531.25
2022-09-10T16:56:15.906Z,100530.16
2022-09-10T16:58:47.073Z,100545.97
2022-09-10T17:01:14.848Z,100544.66
2022-09-10T17:03:43.499Z,100544.91
2022-09-10T17:06:16.985Z,100556.16
2022-09-10T17:08:45.056Z,100559.78
2022-09-10T17:11:17.420Z,100561.13
2022-09-10T17:13:44.201Z,100562.81
2022-09-10T17:16:20.541Z,100565.09
2022-09-10T17:18:47.939Z,100566.31
2022-09-10T17:21:14.433Z,100566.31
2022-09-10T17:23:41.515Z,100570.66
2022-09-10T17:26:08.983Z,100565.47
2022-09-10T17:28:37.094Z,100575.50
2022-09-10T17:31:04.721Z,100572.81
2022-09-10T17:33:31.882Z,100588.41
2022-09-10T17:36:01.048Z,100579.56
2022-09-10T17:38:29.853Z,100580.53
2022-09-10T17:40:59.773Z,100587.09
2022-09-10T17:43:27.561Z,100585.03
2022-09-10T17:45:55.102Z,100592.53
2022-09-10T17:48:26.302Z,100586.50
2022-09-10T17:50:54.695Z,100601.25
2022-09-10T17:53:21.200Z,100605.47
2022-09-10T17:55:48.000Z,100612.03
2022-09-10T17:58:14.811Z,100600.41
2022-09-10T18:00:43.859Z,100616.72
2022-09-10T18:03:12.228Z,100620.84
2022-09-10T18:05:39.568Z,100618.78
2022-09-10T18:08:06.767Z,100627.75
2022-09-10T18:10:34.704Z,100633.41
2022-09-10T18:13:01.670Z,100640.78
2022-09-10T18:15:29.733Z,100645.50
2022-09-10T18:17:59.227Z,100647.94
2022-09-10T18:20:29.565Z,100641.28
2022-09-10T18:22:58.636Z,100651.34
2022-09-10T18:25:29.421Z,100660.28
2022-09-10T18:27:57.191Z,100665.94
2022-09-10T18:30:25.901Z,100667.41
2022-09-10T18:32:53.648Z,100680.97
2022-09-10T18:35:20.597Z,100682.25
2022-09-10T18:37:51.615Z,100683.72
2022-09-10T18:40:19.493Z,100681.34
2022-09-10T18:42:47.643Z,100689.06
2022-09-10T18:45:14.687Z,100696.91
2022-09-10T18:47:44.933Z,100697.28
2022-09-10T18:50:13.096Z,100707.47
2022-09-10T18:52:39.672Z,100707.78
2022-09-10T18:55:06.853Z,100709.84
2022-09-10T18:57:33.436Z,100720.59
2022-09-10T19:00:00.302Z,100725.44
2022-09-10T19:02:26.935Z,100729.53
2022-09-10T19:05:10.837Z,100733.41
2022-09-10T19:07:38.337Z,100735.25
2022-09-10T19:10:06.913Z,100748.47
2022-09-10T19:12:33.777Z,100741.91
2022-09-10T19:15:00.387Z,100747.84
2022-09-10T19:17:26.916Z,100751.00
2022-09-10T19:19:53.695Z,100748.47
2022-09-10T19:22:20.265Z,100750.88
2022-09-10T19:24:55.788Z,100755.72
2022-09-10T19:27:23.598Z,100752.81
2022-09-10T19:29:50.433Z,100764.19
2022-09-10T19:32:19.345Z,100764.19
2022-09-10T19:34:45.876Z,100767.47
2022-09-10T19:37:12.855Z,100770.88
2022-09-10T19:39:39.549Z,100775.19
2022-09-10T19:42:06.690Z,100778.59
2022-09-10T19:44:33.611Z,100770.63
2022-09-10T19:47:00.370Z,100769.00
2022-09-10T19:49:26.876Z,100773.63
2022-09-10T19:51:53.954Z,100769.75
2022-09-10T19:54:22.527Z,100765.63
2022-09-10T19:56:49.614Z,100764.44
2022-09-10T19:59:16.953Z,100769.53
2022-09-10T20:01:45.894Z,100772.94
2022-09-10T20:04:14.048Z,100764.84
2022-09-10T20:06:42.545Z,100770.72
2022-09-10T20:09:10.066Z,100776.06
2022-09-10T20:11:37.626Z,100773.88
2022-09-10T20:14:10.273Z,100777.13
2022-09-10T20:16:42.816Z,100782.00
2022-09-10T20:19:12.077Z,100776.34
2022-09-10T20:21:39.028Z,100778.75
2022-09-10T20:24:07.585Z,100787.84
2022-09-10T20:26:37.793Z,100778.75
2022-09-10T20:29:07.323Z,100788.41
2022-09-10T20:31:36.051Z,100779.81
2022-09-10T20:34:05.189Z,100784.31
2022-09-10T20:36:33.405Z,100781.75
2022-09-10T20:39:00.526Z,100785.31
2022-09-10T20:41:30.107Z,100786.41
2022-09-10T20:43:58.643Z,100791.88
2022-09-10T20:46:26.371Z,100785.53
2022-09-10T20:48:53.068Z,100799.97
2022-09-10T20:51:22.932Z,100804.47
2022-09-10T20:53:49.650Z,100810.09
2022-09-10T20:56:18.542Z,100806.38
2022-09-10T20:58:46.386Z,100816.19
2022-09-10T21:01:16.618Z,100815.22
2022-09-10T21:03:43.265Z,100812.09
2022-09-10T21:06:11.667Z,100818.75
2022-09-10T21:08:40.538Z,100829.16
2022-09-10T21:11:15.304Z,100823.31
2022-09-10T21:13:45.729Z,100822.13
2022-09-10T21:16:17.710Z,100826.69
2022-09-10T21:18:54.271Z,100825.63
2022-09-10T21:21:25.443Z,100827.09
2022-09-10T21:24:00.962Z,100832.19
2022-09-10T21:26:31.417Z,100833.41
2022-09-10T21:29:02.079Z,100831.72
2022-09-10T21:31:29.946Z,100825.91
2022-09-10T21:34:02.823Z,100827.56
2022-09-10T21:36:31.383Z,100841.63
2022-09-10T21:39:00.309Z,100846.69
2022-09-10T21:41:33.070Z,100847.81
2022-09-10T21:44:01.772Z,100842.84
2022-09-10T21:46:29.458Z,100853.22
2022-09-10T21:48:56.570Z,100848.28
2022-09-10T21:51:23.236Z,100860.78
2022-09-10T21:53:54.904Z,100858.47
2022-09-10T21:56:22.734Z,100862.56
2022-09-10T21:58:49.464Z,100861.91
2022-09-10T22:01:24.208Z,100871.34
2022-09-10T22:03:52.998Z,100876.06
2022-09-10T22:06:24.972Z,100860.41
2022-09-10T22:08:55.042Z,100866.81
2022-09-10T22:11:24.214Z,100864.94
2022-09-10T22:13:56.156Z,100878.59
2022-09-10T22:16:23.069Z,100868.75
2022-09-10T22:18:50.684Z,100871.19
2022-09-10T22:21:18.525Z,100881.47
2022-09-10T22:23:45.014Z,100884.16
2022-09-10T22:26:17.062Z,100878.69
2022-09-10T22:28:44.484Z,100881.75
2022-09-10T22:31:14.029Z,100875.34
2022-09-10T22:33:42.450Z,100882.84
2022-09-10T22:36:14.935Z,100879.06
2022-09-10T22:38:43.240Z,100871.81
2022-09-10T22:41:10.159Z,100882.69
2022-09-10T22:43:38.295Z,100869.22
2022-09-10T22:46:06.991Z,100874.94
2022-09-10T22:48:38.162Z,100882.78
2022-09-10T22:51:06.244Z,100880.00
2022-09-10T22:53:33.668Z,100869.38
2022-09-10T22:56:01.068Z,100871.16
2022-09-10T22:58:28.016Z,100872.56
2022-09-10T23:00:54.967Z,100874.47
2022-09-10T23:03:22.085Z,100877.56
2022-09-10T23:05:49.496Z,100884.81
2022-09-10T23:08:16.899Z,100886.06
2022-09-10T23:10:43.485Z,100891.50
2022-09-10T23:13:09.994Z,100890.44
2022-09-10T23:15:36.567Z,100897.78
2022-09-10T23:18:03.095Z,100901.47
2022-09-10T23:20:30.886Z,100904.66
2022-09-10T23:22:57.383Z,100904.66
2022-09-10T23:25:23.930Z,100909.06
2022-09-10T23:27:51.327Z,100899.25
2022-09-10T23:30:18.052Z,100899.56
2022-09-10T23:32:45.032Z,100914.97
2022-09-10T23:35:11.532Z,100914.50
2022-09-10T23:37:38.275Z,100914.06
2022-09-10T23:40:05.729Z,100912.88
2022-09-10T23:42:33.229Z,100916.50
2022-09-10T23:44:59.950Z,100924.22
2022-09-10T23:47:26.928Z,100927.88
2022-09-10T23:49:53.527Z,100925.94
2022-09-10T23:52:20.398Z,100931.78
2022-09-10T23:54:47.292Z,100929.97
2022-09-10T23:57:13.813Z,100924.31
2022-09-10T23:59:40.369Z,100924.09
